Time;durP1;ratioP1;P1;durP2;ratioP2;P2;SDS_P1;SDS_P2;PMS_P1;PMS_P2;Temp;Humidity;BMP_temperature;BMP_pressure;BME280_temperature;BME280_humidity;BME280_pressure;Samples;Min_cycle;Max_cycle;Signal;HPM_P1;HPM_P2
2023/04/04 00:01:55;;;;;;;0.50;0.50;;;0.70;99.90;;;;;;5045597;28;20206;-86
2023/04/04 00:04:20;;;;;;;0.40;0.40;;;0.70;99.90;;;;;;5039777;28;20949;-86
2023/04/04 00:06:46;;;;;;;0.40;0.40;;;0.80;99.90;;;;;;5047520;28;20266;-85
2023/04/04 00:09:12;;;;;;;0.30;0.30;;;0.80;99.90;;;;;;5040404;28;20214;-86
2023/04/04 00:11:39;;;;;;;0.40;0.40;;;0.90;99.90;;;;;;5047870;28;20916;-86
2023/04/04 00:14:05;;;;;;;0.40;0.40;;;0.80;99.90;;;;;;5045425;28;20830;-86
2023/04/04 00:16:31;;;;;;;0.40;0.40;;;0.60;99.90;;;;;;5036381;28;20457;-85
2023/04/04 00:18:56;;;;;;;0.40;0.40;;;0.90;99.90;;;;;;5042195;28;20194;-84
2023/04/04 00:21:24;;;;;;;0.40;0.40;;;0.90;99.90;;;;;;5041581;28;20207;-84
2023/04/04 00:23:49;;;;;;;0.40;0.40;;;0.80;99.90;;;;;;5044160;28;20571;-84
2023/04/04 00:26:16;;;;;;;0.30;0.30;;;0.90;99.90;;;;;;5047569;28;20449;-85
2023/04/04 00:28:42;;;;;;;0.30;0.30;;;0.90;99.90;;;;;;5033827;28;20275;-84
2023/04/04 00:31:08;;;;;;;0.30;0.30;;;0.90;99.90;;;;;;5042500;28;20473;-84
2023/04/04 00:33:33;;;;;;;0.40;0.40;;;0.90;99.90;;;;;;5037012;28;20308;-83
2023/04/04 00:35:59;;;;;;;0.43;0.43;;;0.90;99.90;;;;;;5046863;28;20485;-83
2023/04/04 00:38:25;;;;;;;0.50;0.50;;;0.80;99.90;;;;;;5046838;28;20179;-84
2023/04/04 00:40:51;;;;;;;0.40;0.40;;;0.80;99.90;;;;;;5047378;28;20258;-84
2023/04/04 00:43:17;;;;;;;0.50;0.50;;;0.70;99.90;;;;;;5031648;28;20440;-84
2023/04/04 00:45:43;;;;;;;0.30;0.30;;;0.80;99.90;;;;;;5039949;28;20179;-84
2023/04/04 00:48:08;;;;;;;0.47;0.47;;;0.60;99.90;;;;;;5044406;28;21222;-84
2023/04/04 00:50:34;;;;;;;0.43;0.43;;;0.80;99.90;;;;;;5040202;28;20670;-84
2023/04/04 00:52:59;;;;;;;0.27;0.27;;;0.90;99.90;;;;;;5047415;28;20175;-83
2023/04/04 00:55:26;;;;;;;0.30;0.30;;;0.90;99.90;;;;;;5039596;28;20301;-84
2023/04/04 00:57:51;;;;;;;0.40;0.40;;;0.70;99.90;;;;;;5034414;28;20187;-83
2023/04/04 01:00:17;;;;;;;0.30;0.30;;;0.60;99.90;;;;;;5047507;28;20491;-84
2023/04/04 01:02:43;;;;;;;0.50;0.50;;;0.60;99.90;;;;;;5030779;28;20556;-84
2023/04/04 01:05:11;;;;;;;0.50;0.50;;;0.60;99.90;;;;;;5039263;28;20519;-84
2023/04/04 01:07:37;;;;;;;0.50;0.50;;;0.60;99.90;;;;;;5035152;28;20215;-84
2023/04/04 01:10:03;;;;;;;0.50;0.50;;;0.50;99.90;;;;;;5034555;28;20531;-84
2023/04/04 01:12:29;;;;;;;0.40;0.40;;;0.50;99.90;;;;;;5029970;28;20568;-84
2023/04/04 01:14:54;;;;;;;0.40;0.40;;;0.40;99.90;;;;;;5039071;28;20215;-85
2023/04/04 01:17:21;;;;;;;0.50;0.50;;;0.40;99.90;;;;;;5047098;28;20441;-84
2023/04/04 01:19:58;;;;;;;0.50;0.50;;;0.30;99.90;;;;;;5049248;28;20191;-84
2023/04/04 01:22:26;;;;;;;0.50;0.50;;;0.40;99.90;;;;;;5042939;28;20972;-84
2023/04/04 01:24:55;;;;;;;0.40;0.40;;;0.20;99.90;;;;;;5048037;28;21810;-84
2023/04/04 01:27:20;;;;;;;0.40;0.40;;;0.40;99.90;;;;;;5033419;28;20446;-84
2023/04/04 01:29:46;;;;;;;0.40;0.40;;;0.20;99.90;;;;;;5044838;28;20444;-84
2023/04/04 01:32:25;;;;;;;0.47;0.47;;;0.20;99.90;;;;;;5035372;28;20193;-84
2023/04/04 01:35:00;;;;;;;0.50;0.50;;;0.30;99.90;;;;;;5041478;28;20487;-85
2023/04/04 01:37:43;;;;;;;0.40;0.40;;;0.40;99.90;;;;;;5040202;28;20451;-85
2023/04/04 01:40:20;;;;;;;0.43;0.43;;;0.30;99.90;;;;;;5048518;28;20455;-84
2023/04/04 01:42:46;;;;;;;0.50;0.50;;;0.20;99.90;;;;;;5060680;28;20436;-84
2023/04/04 01:45:12;;;;;;;0.40;0.40;;;0.10;99.90;;;;;;5043939;28;20459;-84
2023/04/04 01:47:42;;;;;;;0.30;0.30;;;0.10;99.90;;;;;;5045868;28;20437;-83
2023/04/04 01:50:18;;;;;;;0.50;0.50;;;0.10;99.90;;;;;;5038513;28;20532;-84
2023/04/04 01:52:52;;;;;;;0.40;0.40;;;0.10;99.90;;;;;;5065576;28;20450;-84
2023/04/04 01:55:21;;;;;;;0.37;0.37;;;0.10;99.90;;;;;;5042711;28;20510;-84
2023/04/04 01:57:47;;;;;;;0.37;0.37;;;0.10;99.90;;;;;;5064927;28;20958;-84
2023/04/04 02:00:14;;;;;;;0.50;0.50;;;0.20;99.90;;;;;;5050253;28;20464;-84
2023/04/04 02:02:40;;;;;;;0.40;0.40;;;0.10;99.90;;;;;;5062286;28;20171;-84
2023/04/04 02:05:06;;;;;;;0.60;0.60;;;0.10;99.90;;;;;;5069642;28;20598;-85
2023/04/04 02:07:31;;;;;;;0.50;0.50;;;0.30;99.90;;;;;;5035137;28;21129;-83
2023/04/04 02:09:57;;;;;;;0.40;0.40;;;0.20;99.90;;;;;;5046891;28;20640;-84
2023/04/04 02:12:23;;;;;;;0.40;0.40;;;0.10;99.90;;;;;;5069892;28;20185;-85
2023/04/04 02:14:48;;;;;;;0.40;0.40;;;0.30;99.90;;;;;;5070224;28;20484;-84
2023/04/04 02:17:14;;;;;;;0.40;0.40;;;0.30;99.90;;;;;;5049448;28;20193;-84
2023/04/04 02:19:39;;;;;;;0.43;0.43;;;0.10;99.90;;;;;;5048325;28;20179;-85
2023/04/04 02:22:05;;;;;;;0.40;0.40;;;0.30;99.90;;;;;;5054453;28;20266;-84
2023/04/04 02:24:31;;;;;;;0.40;0.40;;;0.30;99.90;;;;;;5068102;28;20304;-84
2023/04/04 02:26:56;;;;;;;0.40;0.40;;;0.30;99.90;;;;;;5062416;28;20778;-85
2023/04/04 02:29:22;;;;;;;0.40;0.40;;;0.30;99.90;;;;;;5059127;28;20190;-85
2023/04/04 02:31:47;;;;;;;0.40;0.40;;;0.30;99.90;;;;;;5065150;28;20189;-85
2023/04/04 02:34:13;;;;;;;0.50;0.50;;;0.20;99.90;;;;;;5061011;28;20333;-84
2023/04/04 02:36:38;;;;;;;0.50;0.50;;;0.20;99.90;;;;;;5067188;28;20193;-85
2023/04/04 02:39:04;;;;;;;0.40;0.40;;;0.20;99.90;;;;;;5043850;28;20258;-84
2023/04/04 02:41:30;;;;;;;0.50;0.50;;;0.20;99.90;;;;;;5042040;28;20208;-84
2023/04/04 02:43:56;;;;;;;0.33;0.33;;;0.20;99.90;;;;;;5040673;28;20186;-84
2023/04/04 02:46:21;;;;;;;0.40;0.40;;;0.20;99.90;;;;;;5039109;28;20201;-85
2023/04/04 02:48:47;;;;;;;0.37;0.37;;;0.10;99.90;;;;;;5050929;28;20192;-85
2023/04/04 02:51:13;;;;;;;0.37;0.37;;;0.20;99.90;;;;;;5060037;28;20259;-85
2023/04/04 02:53:38;;;;;;;0.50;0.50;;;0.10;99.90;;;;;;5050656;28;20216;-85
2023/04/04 02:56:04;;;;;;;0.40;0.40;;;0.20;99.90;;;;;;5059282;28;20202;-84
2023/04/04 02:58:33;;;;;;;0.50;0.50;;;0.10;99.90;;;;;;5065582;28;20251;-85
2023/04/04 03:00:59;;;;;;;0.40;0.40;;;0.10;99.90;;;;;;5062364;28;20224;-85
2023/04/04 03:03:27;;;;;;;0.47;0.47;;;0.20;99.90;;;;;;5053714;28;20845;-85
2023/04/04 03:05:52;;;;;;;0.50;0.50;;;0.10;99.90;;;;;;5046566;28;20558;-85
2023/04/04 03:08:18;;;;;;;0.50;0.50;;;0.10;99.90;;;;;;5059373;28;20444;-85
2023/04/04 03:10:45;;;;;;;0.50;0.50;;;0.10;99.90;;;;;;5058639;28;20190;-85
2023/04/04 03:13:11;;;;;;;0.30;0.30;;;-0.10;99.90;;;;;;5051810;28;20193;-85
2023/04/04 03:15:36;;;;;;;0.50;0.50;;;0.00;99.90;;;;;;5039429;28;20484;-85
2023/04/04 03:18:02;;;;;;;0.50;0.50;;;0.10;99.90;;;;;;5071442;28;20172;-85
2023/04/04 03:20:28;;;;;;;0.43;0.43;;;0.00;99.90;;;;;;5066005;28;20205;-85
2023/04/04 03:22:54;;;;;;;0.50;0.50;;;0.10;99.90;;;;;;5071666;28;20425;-85
2023/04/04 03:25:19;;;;;;;0.33;0.33;;;0.10;99.90;;;;;;5048962;28;20182;-84
2023/04/04 03:27:45;;;;;;;0.40;0.40;;;-0.10;99.90;;;;;;5070096;28;20592;-85
2023/04/04 03:30:12;;;;;;;0.40;0.40;;;-0.10;99.90;;;;;;5041423;28;20201;-85
2023/04/04 03:32:40;;;;;;;0.40;0.40;;;0.10;99.90;;;;;;5054378;28;20559;-84
2023/04/04 03:35:07;;;;;;;0.47;0.47;;;0.10;99.90;;;;;;5040545;28;20480;-85
2023/04/04 03:37:32;;;;;;;0.50;0.50;;;0.00;99.90;;;;;;5044294;28;20443;-85
2023/04/04 03:39:58;;;;;;;0.40;0.40;;;0.00;99.90;;;;;;5038746;28;20449;-85
2023/04/04 03:42:25;;;;;;;0.50;0.50;;;-0.10;99.90;;;;;;5053908;28;20600;-85
2023/04/04 03:44:52;;;;;;;0.47;0.47;;;0.10;99.90;;;;;;5068668;28;20178;-85
2023/04/04 03:47:18;;;;;;;0.40;0.40;;;0.00;99.90;;;;;;5052630;28;20444;-85
2023/04/04 03:49:44;;;;;;;0.50;0.50;;;0.00;99.90;;;;;;5068592;28;20484;-85
2023/04/04 03:52:10;;;;;;;0.37;0.37;;;0.10;99.90;;;;;;5063829;28;20937;-85
2023/04/04 03:54:35;;;;;;;0.47;0.47;;;0.00;99.90;;;;;;5050226;28;20270;-85
2023/04/04 03:57:02;;;;;;;0.50;0.50;;;-0.10;99.90;;;;;;5048834;28;20189;-85
2023/04/04 03:59:28;;;;;;;0.40;0.40;;;-0.10;99.90;;;;;;5061369;28;20197;-86
2023/04/04 04:01:56;;;;;;;0.50;0.50;;;0.00;99.90;;;;;;5046304;28;20447;-85
2023/04/04 04:04:22;;;;;;;0.50;0.50;;;-0.10;99.90;;;;;;5060489;28;20554;-85
2023/04/04 04:06:48;;;;;;;0.50;0.50;;;-0.10;99.90;;;;;;5048672;28;21046;-86
2023/04/04 04:09:14;;;;;;;0.50;0.50;;;0.00;99.90;;;;;;5040765;28;20209;-85
2023/04/04 04:11:40;;;;;;;0.30;0.30;;;-0.10;99.90;;;;;;5067452;28;20178;-85
2023/04/04 04:14:05;;;;;;;0.57;0.57;;;-0.10;99.90;;;;;;5048437;28;20491;-86
2023/04/04 04:16:31;;;;;;;0.30;0.30;;;-0.10;99.90;;;;;;5043262;28;20677;-86
2023/04/04 04:19:15;;;;;;;0.50;0.50;;;-0.20;99.90;;;;;;5053205;28;20676;-86
2023/04/04 04:21:46;;;;;;;0.43;0.43;;;-0.30;99.90;;;;;;5051768;28;20941;-85
2023/04/04 04:24:29;;;;;;;0.50;0.50;;;-0.40;99.90;;;;;;5044171;28;20441;-85
2023/04/04 04:26:55;;;;;;;0.50;0.50;;;-0.40;99.90;;;;;;5039748;28;20440;-85
2023/04/04 04:29:21;;;;;;;0.50;0.50;;;-0.20;99.90;;;;;;5039766;28;20441;-85
2023/04/04 04:31:46;;;;;;;0.43;0.43;;;-0.10;99.90;;;;;;5040744;28;20228;-86
2023/04/04 04:34:12;;;;;;;0.60;0.60;;;-0.10;99.90;;;;;;5041415;28;20286;-84
2023/04/04 04:36:38;;;;;;;0.40;0.40;;;-0.10;99.90;;;;;;5048893;28;20183;-85
2023/04/04 04:39:03;;;;;;;0.50;0.50;;;-0.10;99.90;;;;;;5043259;28;20487;-86
2023/04/04 04:41:29;;;;;;;0.40;0.40;;;-0.20;99.90;;;;;;5061907;28;20190;-85
2023/04/04 04:43:55;;;;;;;0.40;0.40;;;-0.10;99.90;;;;;;5067271;28;20185;-85
2023/04/04 04:46:20;;;;;;;0.30;0.30;;;-0.10;99.90;;;;;;5043470;28;20185;-85
2023/04/04 04:48:46;;;;;;;0.50;0.50;;;-0.10;99.90;;;;;;5041470;28;20825;-85
2023/04/04 04:51:13;;;;;;;0.50;0.50;;;-0.20;99.90;;;;;;5061637;28;20213;-85
2023/04/04 04:53:39;;;;;;;0.50;0.50;;;-0.20;99.90;;;;;;5071350;28;20213;-85
2023/04/04 04:56:05;;;;;;;0.50;0.50;;;-0.20;99.90;;;;;;5067777;28;20458;-86
2023/04/04 04:58:31;;;;;;;0.37;0.37;;;-0.10;99.90;;;;;;5044255;28;20531;-85
2023/04/04 05:00:57;;;;;;;0.50;0.50;;;-0.20;99.90;;;;;;5041880;28;20534;-85
2023/04/04 05:03:22;;;;;;;0.50;0.50;;;-0.10;99.90;;;;;;5048962;28;20194;-86
2023/04/04 05:05:48;;;;;;;0.50;0.50;;;-0.10;99.90;;;;;;5071537;28;20194;-86
2023/04/04 05:08:14;;;;;;;0.40;0.40;;;-0.10;99.90;;;;;;5051080;28;20190;-85
2023/04/04 05:10:41;;;;;;;0.50;0.50;;;-0.10;99.90;;;;;;5036416;28;20452;-86
2023/04/04 05:13:06;;;;;;;0.50;0.50;;;-0.10;99.90;;;;;;5058586;28;20515;-86
2023/04/04 05:15:32;;;;;;;0.40;0.40;;;-0.20;99.90;;;;;;5046696;28;20964;-86
2023/04/04 05:17:58;;;;;;;0.47;0.47;;;-0.20;99.90;;;;;;5056986;28;20182;-86
2023/04/04 05:20:23;;;;;;;0.47;0.47;;;-0.10;99.90;;;;;;5044735;28;20281;-85
2023/04/04 05:22:49;;;;;;;0.43;0.43;;;-0.10;99.90;;;;;;5067715;28;20276;-86
2023/04/04 05:25:15;;;;;;;0.40;0.40;;;-0.10;99.90;;;;;;5048106;28;20672;-86
2023/04/04 05:27:41;;;;;;;0.40;0.40;;;-0.20;99.90;;;;;;5065271;28;20190;-87
2023/04/04 05:30:08;;;;;;;0.50;0.50;;;-0.20;99.90;;;;;;5070104;28;20482;-88
2023/04/04 05:32:33;;;;;;;0.40;0.40;;;-0.20;99.90;;;;;;5060192;28;20479;-87
2023/04/04 05:34:59;;;;;;;0.50;0.50;;;-0.20;99.90;;;;;;5044231;28;20487;-87
2023/04/04 05:37:25;;;;;;;0.40;0.40;;;-0.20;99.90;;;;;;5037863;28;20193;-86
2023/04/04 05:39:51;;;;;;;0.27;0.27;;;-0.10;99.90;;;;;;5047487;28;20445;-87
2023/04/04 05:42:16;;;;;;;0.47;0.47;;;0.00;99.90;;;;;;5070193;28;20642;-87
2023/04/04 05:44:42;;;;;;;0.50;0.50;;;0.10;99.90;;;;;;5048941;28;20686;-87
2023/04/04 05:47:08;;;;;;;0.50;0.50;;;0.10;99.90;;;;;;5065542;28;20182;-86
2023/04/04 05:49:33;;;;;;;0.40;0.40;;;0.10;99.90;;;;;;5049950;28;20559;-87
2023/04/04 05:51:59;;;;;;;0.40;0.40;;;0.20;99.90;;;;;;5048198;28;20698;-87
2023/04/04 05:54:25;;;;;;;0.40;0.40;;;0.20;99.90;;;;;;5047436;28;20592;-87
2023/04/04 05:56:51;;;;;;;0.40;0.40;;;0.30;99.90;;;;;;5046546;28;20905;-87
2023/04/04 05:59:17;;;;;;;0.50;0.50;;;0.40;99.90;;;;;;5046605;28;20460;-85
2023/04/04 06:01:43;;;;;;;0.50;0.50;;;0.50;99.90;;;;;;5062182;28;20189;-87
2023/04/04 06:04:09;;;;;;;0.40;0.40;;;0.50;99.90;;;;;;5044530;28;20445;-87
2023/04/04 06:06:34;;;;;;;0.40;0.40;;;0.60;99.90;;;;;;5060945;28;20815;-87
2023/04/04 06:09:00;;;;;;;0.43;0.43;;;0.60;99.90;;;;;;5038366;28;20194;-86
2023/04/04 06:11:26;;;;;;;0.27;0.27;;;0.80;99.90;;;;;;5042722;28;20193;-86
2023/04/04 06:13:53;;;;;;;0.40;0.40;;;0.80;99.90;;;;;;5042140;28;20218;-87
2023/04/04 06:16:19;;;;;;;0.40;0.40;;;0.90;99.90;;;;;;5058688;28;20194;-87
2023/04/04 06:18:45;;;;;;;0.40;0.40;;;1.10;99.90;;;;;;5066067;28;20444;-87
2023/04/04 06:21:12;;;;;;;0.40;0.40;;;1.20;99.90;;;;;;5038487;28;21039;-86
2023/04/04 06:23:38;;;;;;;0.40;0.40;;;1.20;99.90;;;;;;5061171;28;20840;-87
2023/04/04 06:26:03;;;;;;;0.40;0.40;;;1.40;99.90;;;;;;5037838;28;20455;-88
2023/04/04 06:28:29;;;;;;;0.40;0.40;;;1.70;99.90;;;;;;5041989;28;21007;-88
2023/04/04 06:30:55;;;;;;;0.40;0.40;;;2.20;99.90;;;;;;5042990;28;20440;-90
2023/04/04 06:33:21;;;;;;;0.40;0.40;;;2.40;99.90;;;;;;5061248;28;20244;-89
2023/04/04 06:35:46;;;;;;;0.40;0.40;;;2.40;99.90;;;;;;5058772;28;20910;-90
2023/04/04 06:38:12;;;;;;;0.30;0.30;;;2.40;99.90;;;;;;5057160;28;20233;-88
2023/04/04 06:40:37;;;;;;;0.23;0.23;;;2.50;99.90;;;;;;5039797;28;20199;-88
2023/04/04 06:43:03;;;;;;;0.30;0.30;;;2.50;99.90;;;;;;5049363;28;20183;-88
2023/04/04 06:45:32;;;;;;;0.30;0.30;;;2.60;99.90;;;;;;5054950;28;20190;-88
2023/04/04 06:47:58;;;;;;;0.27;0.27;;;2.80;99.90;;;;;;5066506;28;20864;-88
2023/04/04 06:50:23;;;;;;;0.30;0.30;;;3.20;99.90;;;;;;5049864;28;20444;-89
2023/04/04 06:52:49;;;;;;;0.30;0.30;;;3.50;99.90;;;;;;5041390;28;21127;-88
2023/04/04 06:55:16;;;;;;;0.27;0.27;;;3.60;99.90;;;;;;5045006;28;20623;-87
2023/04/04 06:57:42;;;;;;;0.30;0.30;;;3.60;99.90;;;;;;5057285;28;20551;-87
2023/04/04 07:00:09;;;;;;;0.30;0.30;;;3.50;99.90;;;;;;5040927;28;20453;-88
2023/04/04 07:02:35;;;;;;;0.20;0.20;;;3.20;99.90;;;;;;5048250;28;20182;-88
2023/04/04 07:05:02;;;;;;;0.30;0.30;;;3.10;99.90;;;;;;5069946;28;20473;-88
2023/04/04 07:07:28;;;;;;;0.30;0.30;;;3.00;99.90;;;;;;5066580;28;20437;-88
2023/04/04 07:09:54;;;;;;;0.30;0.30;;;2.90;99.90;;;;;;5069968;28;20530;-87
2023/04/04 07:12:19;;;;;;;0.30;0.30;;;2.90;99.90;;;;;;5066917;28;20887;-87
2023/04/04 07:14:45;;;;;;;0.30;0.30;;;2.90;99.90;;;;;;5068071;28;20269;-87
2023/04/04 07:17:11;;;;;;;0.30;0.30;;;3.10;99.90;;;;;;5047567;28;20189;-88
2023/04/04 07:19:36;;;;;;;0.30;0.30;;;3.10;99.90;;;;;;5051465;28;20832;-88
2023/04/04 07:22:02;;;;;;;0.20;0.20;;;3.20;99.90;;;;;;5043465;28;20207;-88
2023/04/04 07:24:28;;;;;;;0.30;0.30;;;3.00;99.90;;;;;;5039771;28;20597;-89
2023/04/04 07:26:53;;;;;;;0.30;0.30;;;3.20;99.90;;;;;;5035855;28;20190;-88
2023/04/04 07:29:20;;;;;;;0.30;0.30;;;3.50;99.90;;;;;;5058111;28;20202;-89
2023/04/04 07:31:46;;;;;;;0.30;0.30;;;3.80;99.90;;;;;;5044400;28;20187;-90
2023/04/04 07:34:12;;;;;;;0.20;0.20;;;3.80;99.90;;;;;;5056985;28;20555;-87
2023/04/04 07:36:37;;;;;;;0.30;0.30;;;3.90;99.90;;;;;;5039023;28;20197;-88
2023/04/04 07:39:03;;;;;;;0.30;0.30;;;4.10;99.90;;;;;;5065038;28;20702;-87
2023/04/04 07:41:29;;;;;;;0.20;0.20;;;4.30;99.90;;;;;;5066504;28;20656;-87
2023/04/04 07:43:55;;;;;;;0.30;0.30;;;4.50;99.90;;;;;;5062133;28;20428;-91
2023/04/04 07:46:21;;;;;;;0.30;0.30;;;4.70;99.90;;;;;;5065343;28;20252;-89
2023/04/04 07:48:46;;;;;;;0.20;0.20;;;4.60;99.90;;;;;;5047535;28;20678;-91
2023/04/04 07:51:12;;;;;;;0.30;0.30;;;4.70;99.90;;;;;;5065435;28;20459;-90
2023/04/04 07:53:38;;;;;;;0.27;0.27;;;4.70;99.90;;;;;;5067245;28;20200;-90
2023/04/04 07:56:06;;;;;;;0.20;0.20;;;4.70;99.90;;;;;;5071144;28;20543;-90
2023/04/04 07:58:35;;;;;;;0.30;0.30;;;4.90;99.90;;;;;;5050323;28;20187;-89
2023/04/04 08:01:02;;;;;;;0.27;0.27;;;5.10;99.90;;;;;;5053259;28;20444;-89
2023/04/04 08:03:28;;;;;;;0.20;0.20;;;5.00;99.90;;;;;;5049920;28;21429;-90
2023/04/04 08:05:53;;;;;;;0.20;0.20;;;5.10;99.90;;;;;;5041688;28;20530;-90
2023/04/04 08:08:19;;;;;;;0.20;0.20;;;5.10;99.90;;;;;;5048694;28;20724;-90
2023/04/04 08:10:44;;;;;;;0.20;0.20;;;5.20;99.90;;;;;;5067444;28;20190;-90
2023/04/04 08:13:11;;;;;;;0.20;0.20;;;5.10;99.90;;;;;;5070199;28;20186;-89
2023/04/04 08:15:37;;;;;;;0.20;0.20;;;5.40;99.90;;;;;;5053056;28;20232;-90
2023/04/04 08:18:02;;;;;;;0.20;0.20;;;5.20;99.90;;;;;;5044127;28;20532;-91
2023/04/04 08:20:29;;;;;;;0.20;0.20;;;5.50;99.90;;;;;;5068583;28;20193;-90
2023/04/04 08:22:55;;;;;;;0.20;0.20;;;5.60;99.90;;;;;;5052569;28;20190;-90
2023/04/04 08:25:20;;;;;;;0.10;0.10;;;5.70;99.90;;;;;;5052330;28;20460;-90
2023/04/04 08:27:46;;;;;;;0.20;0.20;;;6.10;99.90;;;;;;5071763;28;20767;-90
2023/04/04 08:30:13;;;;;;;0.20;0.20;;;6.20;99.90;;;;;;5070970;28;20676;-91
2023/04/04 08:32:39;;;;;;;0.20;0.20;;;6.00;98.70;;;;;;5051875;28;21031;-91
2023/04/04 08:35:07;;;;;;;0.20;0.20;;;6.20;99.90;;;;;;5051544;28;20495;-91
2023/04/04 08:37:34;;;;;;;0.10;0.10;;;6.10;99.90;;;;;;5049053;28;21071;-91
2023/04/04 08:40:00;;;;;;;0.20;0.20;;;6.10;97.90;;;;;;5034411;28;20539;-91
2023/04/04 08:42:27;;;;;;;0.20;0.20;;;6.00;97.20;;;;;;5053432;28;20538;-90
2023/04/04 08:44:54;;;;;;;0.20;0.20;;;6.00;99.80;;;;;;5050611;28;20495;-91
2023/04/04 08:47:22;;;;;;;0.20;0.20;;;6.20;99.90;;;;;;5033696;28;20534;-91
2023/04/04 08:49:50;;;;;;;0.10;0.10;;;6.20;99.60;;;;;;5034889;28;20464;-90
2023/04/04 08:52:19;;;;;;;0.13;0.13;;;6.20;98.50;;;;;;5036237;28;20453;-91
2023/04/04 08:54:46;;;;;;;0.20;0.20;;;6.00;96.70;;;;;;5070079;28;20479;-89
2023/04/04 08:57:11;;;;;;;0.20;0.20;;;6.40;99.10;;;;;;5049698;28;20498;-89
2023/04/04 08:59:37;;;;;;;0.20;0.20;;;6.50;97.90;;;;;;5048224;28;20456;-90
2023/04/04 09:02:09;;;;;;;0.20;0.20;;;6.60;98.90;;;;;;5069184;28;20263;-89
2023/04/04 09:04:35;;;;;;;0.20;0.20;;;6.70;99.60;;;;;;5044360;28;20444;-88
2023/04/04 09:07:02;;;;;;;0.20;0.20;;;6.60;99.60;;;;;;5044491;28;21330;-87
2023/04/04 09:09:33;;;;;;;0.20;0.20;;;6.60;99.90;;;;;;5050908;28;20960;-88
2023/04/04 09:12:00;;;;;;;0.20;0.20;;;6.40;97.30;;;;;;5067344;28;20436;-88
2023/04/04 09:14:26;;;;;;;0.20;0.20;;;6.40;98.90;;;;;;5069500;28;20564;-87
2023/04/04 09:16:52;;;;;;;0.13;0.13;;;6.80;98.30;;;;;;5046962;28;21103;-87
2023/04/04 09:19:17;;;;;;;0.10;0.10;;;6.80;98.00;;;;;;5061301;28;20333;-88
2023/04/04 09:21:47;;;;;;;0.20;0.20;;;6.80;97.20;;;;;;5048066;28;20547;-88
2023/04/04 09:24:14;;;;;;;0.10;0.10;;;6.90;96.90;;;;;;5039294;28;20646;-88
2023/04/04 09:26:51;;;;;;;0.10;0.10;;;6.70;97.40;;;;;;5063212;28;21717;-87
2023/04/04 09:29:18;;;;;;;0.10;0.10;;;6.90;97.40;;;;;;5044793;28;21053;-87
2023/04/04 09:31:45;;;;;;;0.13;0.13;;;7.00;97.80;;;;;;5038142;28;20456;-87
2023/04/04 09:34:14;;;;;;;0.20;0.20;;;7.30;95.80;;;;;;5041604;28;20491;-87
2023/04/04 09:36:40;;;;;;;0.10;0.10;;;7.40;95.80;;;;;;5043118;28;20573;-87
2023/04/04 09:39:07;;;;;;;0.20;0.20;;;7.30;92.10;;;;;;5061120;28;20768;-88
2023/04/04 09:41:33;;;;;;;0.10;0.10;;;7.80;95.20;;;;;;5062092;28;20453;-89
2023/04/04 09:43:59;;;;;;;0.10;0.10;;;7.90;95.50;;;;;;5065306;28;20557;-88
2023/04/04 09:46:26;;;;;;;0.10;0.10;;;8.30;96.80;;;;;;5061206;28;20970;-87
2023/04/04 09:48:54;;;;;;;0.10;0.10;;;8.70;95.30;;;;;;5066504;28;20469;-87
2023/04/04 09:51:20;;;;;;;0.10;0.10;;;8.60;94.30;;;;;;5064398;28;20440;-89
2023/04/04 09:53:49;;;;;;;0.10;0.10;;;8.50;94.90;;;;;;5066237;28;20471;-90
2023/04/04 09:56:15;;;;;;;0.10;0.10;;;9.20;95.60;;;;;;5048523;28;20182;-88
2023/04/04 09:58:46;;;;;;;0.10;0.10;;;9.60;95.00;;;;;;5046541;28;21265;-89
2023/04/04 10:01:12;;;;;;;0.10;0.10;;;9.60;96.10;;;;;;5060415;28;20190;-88
2023/04/04 10:03:38;;;;;;;0.10;0.10;;;9.40;93.60;;;;;;5043255;28;20440;-88
2023/04/04 10:06:05;;;;;;;0.10;0.10;;;9.80;92.30;;;;;;5043366;28;20449;-89
2023/04/04 10:08:31;;;;;;;0.10;0.10;;;9.80;93.80;;;;;;5044977;28;20916;-87
2023/04/04 10:10:58;;;;;;;0.03;0.03;;;10.00;91.40;;;;;;5042876;28;20444;-88
2023/04/04 10:13:34;;;;;;;0.10;0.10;;;9.90;90.90;;;;;;5041577;28;20440;-89
2023/04/04 10:16:01;;;;;;;0.10;0.10;;;10.20;93.00;;;;;;5059815;28;20521;-88
2023/04/04 10:18:28;;;;;;;0.03;0.03;;;10.20;94.30;;;;;;5046612;28;20522;-90
2023/04/04 10:20:55;;;;;;;0.10;0.10;;;10.00;91.10;;;;;;5064027;28;20436;-88
2023/04/04 10:23:23;;;;;;;0.10;0.10;;;9.90;94.30;;;;;;5046806;28;20436;-88
2023/04/04 10:25:49;;;;;;;0.10;0.10;;;9.00;86.90;;;;;;5067065;28;20437;-88
2023/04/04 10:28:20;;;;;;;0.10;0.10;;;8.50;84.60;;;;;;5048857;28;20444;-89
2023/04/04 10:30:59;;;;;;;0.10;0.10;;;8.90;85.80;;;;;;5048417;28;20468;-87
2023/04/04 10:33:42;;;;;;;0.10;0.10;;;9.00;84.90;;;;;;5063642;28;20990;-88
2023/04/04 10:36:10;;;;;;;0.10;0.10;;;8.60;88.20;;;;;;5064889;28;20942;-89
2023/04/04 10:38:43;;;;;;;0.10;0.10;;;8.20;88.20;;;;;;5056024;28;20976;-87
2023/04/04 10:41:12;;;;;;;0.10;0.10;;;8.50;91.00;;;;;;5043010;28;20463;-87
2023/04/04 10:43:41;;;;;;;0.10;0.10;;;9.20;92.00;;;;;;5070082;28;20444;-88
2023/04/04 10:46:11;;;;;;;0.10;0.10;;;9.40;89.90;;;;;;5063240;28;20450;-87
2023/04/04 10:48:36;;;;;;;0.10;0.10;;;9.60;87.10;;;;;;5068221;28;20484;-86
2023/04/04 10:51:04;;;;;;;0.10;0.10;;;9.80;90.90;;;;;;5053198;28;20533;-87
2023/04/04 10:53:30;;;;;;;0.10;0.10;;;;;;;;;;5071216;28;20820;-88
2023/04/04 10:55:57;;;;;;;0.10;0.10;;;10.70;99.90;;;;;;5048385;28;20491;-89
2023/04/04 10:58:23;;;;;;;0.10;0.10;;;10.70;99.90;;;;;;5066156;28;20439;-88
2023/04/04 11:00:54;;;;;;;0.07;0.07;;;10.40;94.00;;;;;;5065798;28;20441;-88
2023/04/04 11:03:20;;;;;;;0.07;0.07;;;10.80;92.50;;;;;;5066372;28;20229;-87
2023/04/04 11:05:46;;;;;;;0.00;0.00;;;11.00;91.70;;;;;;5066789;28;20898;-88
2023/04/04 11:08:17;;;;;;;0.00;0.00;;;11.70;92.10;;;;;;5061518;28;20534;-88
2023/04/04 11:10:46;;;;;;;0.00;0.00;;;11.40;89.60;;;;;;5048448;28;20206;-88
2023/04/04 11:13:17;;;;;;;0.00;0.00;;;;;;;;;;5062194;28;20451;-88
2023/04/04 11:16:06;;;;;;;0.00;0.00;;;;;;;;;;5062818;28;21011;-87
2023/04/04 11:18:32;;;;;;;0.00;0.00;;;;;;;;;;5043309;28;20437;-87
2023/04/04 11:21:06;;;;;;;0.00;0.00;;;;;;;;;;5060320;28;20808;-87
2023/04/04 11:23:58;;;;;;;0.00;0.00;;;;;;;;;;5065198;28;20923;-88
2023/04/04 11:26:27;;;;;;;0.00;0.00;;;;;;;;;;5067805;28;20527;-88
2023/04/04 11:28:57;;;;;;;0.00;0.00;;;;;;;;;;5052446;28;20452;-88
2023/04/04 11:31:24;;;;;;;0.00;0.00;;;;;;;;;;5050175;28;20444;-90
2023/04/04 11:34:12;;;;;;;0.00;0.00;;;12.10;99.90;;;;;;5063645;28;21002;-87
2023/04/04 11:36:43;;;;;;;0.00;0.00;;;;;;;;;;5034704;28;20449;-87
2023/04/04 11:39:21;;;;;;;0.00;0.00;;;10.70;99.90;;;;;;5046882;28;20543;-86
2023/04/04 11:42:12;;;;;;;0.00;0.00;;;10.80;99.90;;;;;;5037008;28;20453;-86
2023/04/04 11:44:48;;;;;;;0.00;0.00;;;10.90;99.90;;;;;;5049378;28;20974;-87
2023/04/04 11:47:14;;;;;;;0.00;0.00;;;;;;;;;;5067488;28;20443;-86
2023/04/04 11:49:41;;;;;;;0.00;0.00;;;;;;;;;;5061750;28;20793;-85
2023/04/04 11:52:08;;;;;;;0.00;0.00;;;;;;;;;;5055609;28;20524;-87
2023/04/04 11:54:34;;;;;;;0.00;0.00;;;;;;;;;;5042566;28;20475;-86
2023/04/04 11:57:02;;;;;;;0.00;0.00;;;;;;;;;;5073486;28;20918;-86
2023/04/04 11:59:29;;;;;;;0.00;0.00;;;;;;;;;;5042619;28;20500;-87
2023/04/04 12:01:56;;;;;;;0.10;0.10;;;;;;;;;;5064569;28;20440;-87
2023/04/04 12:04:22;;;;;;;0.10;0.10;;;;;;;;;;5039640;28;20467;-87
2023/04/04 12:06:50;;;;;;;0.03;0.03;;;;;;;;;;5053493;28;20639;-85
2023/04/04 12:09:19;;;;;;;0.10;0.10;;;;;;;;;;5058519;28;20551;-85
2023/04/04 12:11:45;;;;;;;0.00;0.00;;;;;;;;;;5044705;28;20445;-87
2023/04/04 12:14:18;;;;;;;0.00;0.00;;;;;;;;;;5044020;28;20682;-87
2023/04/04 12:16:47;;;;;;;0.00;0.00;;;;;;;;;;5051569;28;20437;-85
2023/04/04 12:19:13;;;;;;;0.00;0.00;;;;;;;;;;5062987;28;20472;-85
2023/04/04 12:21:39;;;;;;;0.00;0.00;;;;;;;;;;5051340;28;20992;-86
2023/04/04 12:24:07;;;;;;;0.10;0.10;;;;;;;;;;5047495;28;20494;-86
2023/04/04 12:26:33;;;;;;;0.00;0.00;;;;;;;;;;5048023;28;20444;-85
2023/04/04 12:29:00;;;;;;;0.00;0.00;;;;;;;;;;5049508;28;20446;-87
2023/04/04 12:31:26;;;;;;;0.00;0.00;;;;;;;;;;5062125;28;20513;-87
2023/04/04 12:33:53;;;;;;;0.00;0.00;;;;;;;;;;5063941;28;20495;-86
2023/04/04 12:36:19;;;;;;;0.00;0.00;;;;;;;;;;5043428;28;20452;-87
2023/04/04 12:38:59;;;;;;;0.00;0.00;;;;;;;;;;5047967;28;20447;-86
2023/04/04 12:41:26;;;;;;;0.00;0.00;;;;;;;;;;5058605;28;20437;-85
2023/04/04 12:43:59;;;;;;;0.00;0.00;;;11.30;99.90;;;;;;5065959;28;20447;-85
2023/04/04 12:46:26;;;;;;;0.00;0.00;;;;;;;;;;5069012;28;20473;-86
2023/04/04 12:48:53;;;;;;;0.00;0.00;;;;;;;;;;5054548;28;20488;-86
2023/04/04 12:51:19;;;;;;;0.00;0.00;;;;;;;;;;5062028;28;20479;-85
2023/04/04 12:53:52;;;;;;;0.00;0.00;;;;;;;;;;5067973;28;20935;-86
2023/04/04 12:56:19;;;;;;;0.00;0.00;;;;;;;;;;5046094;28;20452;-88
2023/04/04 12:58:49;;;;;;;0.00;0.00;;;;;;;;;;5064186;28;20471;-89
2023/04/04 13:01:16;;;;;;;0.00;0.00;;;;;;;;;;5061827;28;20440;-88
2023/04/04 13:03:42;;;;;;;0.00;0.00;;;;;;;;;;5048368;28;20444;-87
2023/04/04 13:06:12;;;;;;;0.00;0.00;;;;;;;;;;5063810;28;20812;-88
2023/04/04 13:08:48;;;;;;;0.00;0.00;;;;;;;;;;5060633;28;20441;-88